sensor_id;sensor_type;location;lat;lon;timestamp;pressure;altitude;pressure_sealevel;temperature;humidity
74561;BME280;62979;55.720;37.606;2023-11-19T00:01:59;100643.44;;;-2.31;51.86
74561;BME280;62979;55.720;37.606;2023-11-19T00:04:26;100643.34;;;-2.33;51.88
74561;BME280;62979;55.720;37.606;2023-11-19T00:06:53;100640.91;;;-2.30;52.22
74561;BME280;62979;55.720;37.606;2023-11-19T00:09:20;100638.34;;;-2.30;52.15
74561;BME280;62979;55.720;37.606;2023-11-19T00:11:49;100636.88;;;-2.25;52.35
74561;BME280;62979;55.720;37.606;2023-11-19T00:14:16;100627.50;;;-2.24;52.37
74561;BME280;62979;55.720;37.606;2023-11-19T00:16:43;100633.22;;;-2.30;52.05
74561;BME280;62979;55.720;37.606;2023-11-19T00:19:10;100633.03;;;-2.34;51.42
74561;BME280;62979;55.720;37.606;2023-11-19T00:21:37;100614.66;;;-2.45;51.71
74561;BME280;62979;55.720;37.606;2023-11-19T00:24:07;100638.03;;;-2.38;52.29
74561;BME280;62979;55.720;37.606;2023-11-19T00:26:34;100628.66;;;-2.37;51.93
74561;BME280;62979;55.720;37.606;2023-11-19T00:29:03;100623.72;;;-2.32;51.81
74561;BME280;62979;55.720;37.606;2023-11-19T00:31:30;100629.72;;;-2.32;52.00
74561;BME280;62979;55.720;37.606;2023-11-19T00:33:57;100623.81;;;-2.31;51.77
74561;BME280;62979;55.720;37.606;2023-11-19T00:36:24;100625.56;;;-2.30;52.24
74561;BME280;62979;55.720;37.606;2023-11-19T00:38:52;100601.84;;;-2.45;52.12
74561;BME280;62979;55.720;37.606;2023-11-19T00:41:19;100618.69;;;-2.31;52.29
74561;BME280;62979;55.720;37.606;2023-11-19T00:43:47;100613.16;;;-2.40;51.90
74561;BME280;62979;55.720;37.606;2023-11-19T00:46:16;100611.44;;;-2.41;51.90
74561;BME280;62979;55.720;37.606;2023-11-19T00:48:43;100619.28;;;-2.37;51.75
74561;BME280;62979;55.720;37.606;2023-11-19T00:51:11;100617.34;;;-2.42;52.30
74561;BME280;62979;55.720;37.606;2023-11-19T00:53:39;100611.28;;;-2.44;52.13
74561;BME280;62979;55.720;37.606;2023-11-19T00:56:07;100612.94;;;-2.46;52.26
74561;BME280;62979;55.720;37.606;2023-11-19T00:58:35;100605.84;;;-2.52;52.03
74561;BME280;62979;55.720;37.606;2023-11-19T01:01:02;100608.59;;;-2.47;52.63
74561;BME280;62979;55.720;37.606;2023-11-19T01:03:32;100601.47;;;-2.54;52.83
74561;BME280;62979;55.720;37.606;2023-11-19T01:05:59;100594.53;;;-2.57;52.92
74561;BME280;62979;55.720;37.606;2023-11-19T01:08:28;100593.44;;;-2.62;52.85
74561;BME280;62979;55.720;37.606;2023-11-19T01:10:55;100591.88;;;-2.59;53.29
74561;BME280;62979;55.720;37.606;2023-11-19T01:13:22;100591.72;;;-2.63;53.06
74561;BME280;62979;55.720;37.606;2023-11-19T01:15:50;100591.75;;;-2.62;52.82
74561;BME280;62979;55.720;37.606;2023-11-19T01:18:17;100583.41;;;-2.58;52.97
74561;BME280;62979;55.720;37.606;2023-11-19T01:20:45;100575.66;;;-2.59;52.92
74561;BME280;62979;55.720;37.606;2023-11-19T01:23:12;100585.53;;;-2.47;52.35
74561;BME280;62979;55.720;37.606;2023-11-19T01:25:39;100576.91;;;-2.49;52.78
74561;BME280;62979;55.720;37.606;2023-11-19T01:28:07;100580.31;;;-2.50;52.73
74561;BME280;62979;55.720;37.606;2023-11-19T01:30:34;100564.28;;;-2.66;53.24
74561;BME280;62979;55.720;37.606;2023-11-19T01:33:01;100565.38;;;-2.61;53.05
74561;BME280;62979;55.720;37.606;2023-11-19T01:35:28;100572.31;;;-2.58;53.29
74561;BME280;62979;55.720;37.606;2023-11-19T01:37:57;100567.78;;;-2.64;53.60
74561;BME280;62979;55.720;37.606;2023-11-19T01:40:24;100569.41;;;-2.66;53.31
74561;BME280;62979;55.720;37.606;2023-11-19T01:42:51;100576.94;;;-2.69;53.56
74561;BME280;62979;55.720;37.606;2023-11-19T01:45:28;100574.13;;;-2.75;54.03
74561;BME280;62979;55.720;37.606;2023-11-19T01:47:56;100572.53;;;-2.73;54.18
74561;BME280;62979;55.720;37.606;2023-11-19T01:50:25;100553.91;;;-2.69;54.10
74561;BME280;62979;55.720;37.606;2023-11-19T01:52:55;100567.03;;;-2.61;54.15
74561;BME280;62979;55.720;37.606;2023-11-19T01:55:25;100562.66;;;-2.64;53.96
74561;BME280;62979;55.720;37.606;2023-11-19T01:57:55;100552.41;;;-2.64;54.46
74561;BME280;62979;55.720;37.606;2023-11-19T02:00:27;100559.31;;;-2.63;53.90
74561;BME280;62979;55.720;37.606;2023-11-19T02:02:55;100562.81;;;-2.61;53.86
74561;BME280;62979;55.720;37.606;2023-11-19T02:05:22;100570.13;;;-2.68;54.05
74561;BME280;62979;55.720;37.606;2023-11-19T02:07:49;100564.88;;;-2.71;54.21
74561;BME280;62979;55.720;37.606;2023-11-19T02:10:18;100558.50;;;-2.81;53.87
74561;BME280;62979;55.720;37.606;2023-11-19T02:12:45;100565.50;;;-2.77;54.05
74561;BME280;62979;55.720;37.606;2023-11-19T02:15:13;100560.28;;;-2.80;53.84
74561;BME280;62979;55.720;37.606;2023-11-19T02:17:40;100563.91;;;-2.75;54.12
74561;BME280;62979;55.720;37.606;2023-11-19T02:20:09;100553.38;;;-2.81;54.43
74561;BME280;62979;55.720;37.606;2023-11-19T02:22:38;100561.38;;;-2.73;54.30
74561;BME280;62979;55.720;37.606;2023-11-19T02:25:07;100567.25;;;-2.76;54.45
74561;BME280;62979;55.720;37.606;2023-11-19T02:27:53;100568.06;;;-2.77;54.25
74561;BME280;62979;55.720;37.606;2023-11-19T02:30:23;100559.66;;;-2.74;54.21
74561;BME280;62979;55.720;37.606;2023-11-19T02:32:52;100556.22;;;-2.75;54.07
74561;BME280;62979;55.720;37.606;2023-11-19T02:35:20;100549.28;;;-2.77;54.00
74561;BME280;62979;55.720;37.606;2023-11-19T02:37:48;100535.47;;;-2.81;53.51
74561;BME280;62979;55.720;37.606;2023-11-19T02:40:15;100562.28;;;-2.73;53.77
74561;BME280;62979;55.720;37.606;2023-11-19T02:42:43;100549.09;;;-2.82;53.53
74561;BME280;62979;55.720;37.606;2023-11-19T02:45:11;100557.91;;;-2.75;53.83
74561;BME280;62979;55.720;37.606;2023-11-19T02:47:40;100552.50;;;-2.82;53.65
74561;BME280;62979;55.720;37.606;2023-11-19T02:50:08;100565.22;;;-2.83;53.63
74561;BME280;62979;55.720;37.606;2023-11-19T02:52:40;100547.31;;;-2.83;53.80
74561;BME280;62979;55.720;37.606;2023-11-19T02:55:08;100553.38;;;-2.81;53.83
74561;BME280;62979;55.720;37.606;2023-11-19T02:57:38;100551.53;;;-2.85;53.85
74561;BME280;62979;55.720;37.606;2023-11-19T03:00:13;100544.75;;;-2.83;53.96
74561;BME280;62979;55.720;37.606;2023-11-19T03:02:41;100543.03;;;-2.84;53.82
74561;BME280;62979;55.720;37.606;2023-11-19T03:05:11;100551.03;;;-2.76;54.32
74561;BME280;62979;55.720;37.606;2023-11-19T03:07:41;100555.41;;;-2.74;53.96
74561;BME280;62979;55.720;37.606;2023-11-19T03:10:09;100548.66;;;-2.72;53.83
74561;BME280;62979;55.720;37.606;2023-11-19T03:12:39;100527.78;;;-2.81;53.76
74561;BME280;62979;55.720;37.606;2023-11-19T03:15:07;100524.81;;;-2.90;54.12
74561;BME280;62979;55.720;37.606;2023-11-19T03:17:38;100540.03;;;-2.74;54.45
74561;BME280;62979;55.720;37.606;2023-11-19T03:20:07;100541.94;;;-2.70;53.77
74561;BME280;62979;55.720;37.606;2023-11-19T03:22:36;100538.69;;;-2.66;53.46
74561;BME280;62979;55.720;37.606;2023-11-19T03:25:04;100534.09;;;-2.53;53.00
74561;BME280;62979;55.720;37.606;2023-11-19T03:27:34;100529.19;;;-2.47;52.91
74561;BME280;62979;55.720;37.606;2023-11-19T03:30:02;100536.09;;;-2.46;52.80
74561;BME280;62979;55.720;37.606;2023-11-19T03:32:31;100510.56;;;-2.64;52.74
74561;BME280;62979;55.720;37.606;2023-11-19T03:35:00;100522.72;;;-2.60;53.08
74561;BME280;62979;55.720;37.606;2023-11-19T03:37:29;100535.94;;;-2.49;53.00
74561;BME280;62979;55.720;37.606;2023-11-19T03:39:57;100521.69;;;-2.64;52.61
74561;BME280;62979;55.720;37.606;2023-11-19T03:42:25;100522.19;;;-2.51;52.81
74561;BME280;62979;55.720;37.606;2023-11-19T03:44:53;100526.00;;;-2.42;52.80
74561;BME280;62979;55.720;37.606;2023-11-19T03:47:21;100531.22;;;-2.40;51.90
74561;BME280;62979;55.720;37.606;2023-11-19T03:49:48;100525.34;;;-2.38;52.71
74561;BME280;62979;55.720;37.606;2023-11-19T03:52:18;100509.78;;;-2.42;52.59
74561;BME280;62979;55.720;37.606;2023-11-19T03:54:45;100525.81;;;-2.25;52.16
74561;BME280;62979;55.720;37.606;2023-11-19T03:57:12;100507.72;;;-2.30;51.94
74561;BME280;62979;55.720;37.606;2023-11-19T03:59:41;100524.84;;;-2.29;51.75
74561;BME280;62979;55.720;37.606;2023-11-19T04:02:08;100519.72;;;-2.29;51.82
74561;BME280;62979;55.720;37.606;2023-11-19T04:04:35;100489.34;;;-2.41;51.11
74561;BME280;62979;55.720;37.606;2023-11-19T04:07:03;100496.72;;;-2.27;51.46
74561;BME280;62979;55.720;37.606;2023-11-19T04:09:32;100491.41;;;-2.32;51.43
74561;BME280;62979;55.720;37.606;2023-11-19T04:12:00;100494.97;;;-2.28;51.25
74561;BME280;62979;55.720;37.606;2023-11-19T04:14:27;100485.66;;;-2.26;50.74
74561;BME280;62979;55.720;37.606;2023-11-19T04:16:55;100487.22;;;-2.30;50.71
74561;BME280;62979;55.720;37.606;2023-11-19T04:19:23;100487.31;;;-2.27;50.87
74561;BME280;62979;55.720;37.606;2023-11-19T04:21:50;100480.59;;;-2.25;50.96
74561;BME280;62979;55.720;37.606;2023-11-19T04:24:17;100473.09;;;-2.20;50.87
74561;BME280;62979;55.720;37.606;2023-11-19T04:26:46;100479.25;;;-2.15;50.49
74561;BME280;62979;55.720;37.606;2023-11-19T04:29:14;100440.25;;;-2.30;50.66
74561;BME280;62979;55.720;37.606;2023-11-19T04:31:42;100462.34;;;-2.11;51.74
74561;BME280;62979;55.720;37.606;2023-11-19T04:34:11;100463.28;;;-2.09;52.42
74561;BME280;62979;55.720;37.606;2023-11-19T04:36:38;100465.59;;;-2.16;52.93
74561;BME280;62979;55.720;37.606;2023-11-19T04:39:05;100475.16;;;-2.11;52.91
74561;BME280;62979;55.720;37.606;2023-11-19T04:41:46;100477.59;;;-2.14;54.95
74561;BME280;62979;55.720;37.606;2023-11-19T04:44:14;100481.91;;;-2.13;55.05
74561;BME280;62979;55.720;37.606;2023-11-19T04:46:43;100486.25;;;-2.11;54.31
74561;BME280;62979;55.720;37.606;2023-11-19T04:49:11;100487.97;;;-2.11;54.79
74561;BME280;62979;55.720;37.606;2023-11-19T04:51:39;100491.31;;;-2.12;54.03
74561;BME280;62979;55.720;37.606;2023-11-19T04:54:07;100495.75;;;-2.08;53.99
74561;BME280;62979;55.720;37.606;2023-11-19T04:56:35;100490.44;;;-2.13;54.29
74561;BME280;62979;55.720;37.606;2023-11-19T04:59:04;100478.38;;;-2.16;54.13
74561;BME280;62979;55.720;37.606;2023-11-19T05:01:31;100489.75;;;-2.09;54.43
74561;BME280;62979;55.720;37.606;2023-11-19T05:03:59;100493.38;;;-2.04;54.25
74561;BME280;62979;55.720;37.606;2023-11-19T05:06:27;100485.50;;;-2.08;54.29
74561;BME280;62979;55.720;37.606;2023-11-19T05:08:55;100494.34;;;-2.00;54.45
74561;BME280;62979;55.720;37.606;2023-11-19T05:11:23;100489.13;;;-2.03;54.01
74561;BME280;62979;55.720;37.606;2023-11-19T05:13:51;100495.44;;;-1.95;54.35
74561;BME280;62979;55.720;37.606;2023-11-19T05:16:19;100500.56;;;-1.95;53.82
74561;BME280;62979;55.720;37.606;2023-11-19T05:18:47;100495.28;;;-1.98;53.94
74561;BME280;62979;55.720;37.606;2023-11-19T05:21:14;100506.75;;;-1.90;53.50
74561;BME280;62979;55.720;37.606;2023-11-19T05:23:42;100509.31;;;-1.90;53.01
74561;BME280;62979;55.720;37.606;2023-11-19T05:26:17;100498.44;;;-2.05;53.39
74561;BME280;62979;55.720;37.606;2023-11-19T05:28:46;100507.88;;;-2.04;53.34
74561;BME280;62979;55.720;37.606;2023-11-19T05:31:14;100507.88;;;-2.04;53.39
74561;BME280;62979;55.720;37.606;2023-11-19T05:33:44;100499.75;;;-2.15;53.14
74561;BME280;62979;55.720;37.606;2023-11-19T05:36:12;100495.16;;;-2.24;53.06
74561;BME280;62979;55.720;37.606;2023-11-19T05:38:39;100512.94;;;-2.27;52.31
74561;BME280;62979;55.720;37.606;2023-11-19T05:41:07;100509.59;;;-2.26;52.15
74561;BME280;62979;55.720;37.606;2023-11-19T05:43:34;100513.41;;;-2.16;52.51
74561;BME280;62979;55.720;37.606;2023-11-19T05:46:01;100495.97;;;-2.25;52.29
74561;BME280;62979;55.720;37.606;2023-11-19T05:48:28;100508.75;;;-2.25;52.27
74561;BME280;62979;55.720;37.606;2023-11-19T05:50:57;100505.44;;;-2.22;52.41
74561;BME280;62979;55.720;37.606;2023-11-19T05:53:24;100510.28;;;-2.30;52.14
74561;BME280;62979;55.720;37.606;2023-11-19T05:55:51;100501.53;;;-2.35;51.75
74561;BME280;62979;55.720;37.606;2023-11-19T05:58:23;100505.91;;;-2.32;51.40
74561;BME280;62979;55.720;37.606;2023-11-19T06:00:54;100496.47;;;-2.33;50.55
74561;BME280;62979;55.720;37.606;2023-11-19T06:03:21;100494.09;;;-2.29;50.73
74561;BME280;62979;55.720;37.606;2023-11-19T06:05:48;100503.22;;;-2.35;50.67
74561;BME280;62979;55.720;37.606;2023-11-19T06:08:17;100513.59;;;-2.32;50.54
74561;BME280;62979;55.720;37.606;2023-11-19T06:10:46;100450.38;;;-2.54;49.70
74561;BME280;62979;55.720;37.606;2023-11-19T06:13:16;100493.47;;;-2.44;50.72
74561;BME280;62979;55.720;37.606;2023-11-19T06:15:43;100494.38;;;-2.44;50.59
74561;BME280;62979;55.720;37.606;2023-11-19T06:18:10;100498.03;;;-2.37;50.55
74561;BME280;62979;55.720;37.606;2023-11-19T06:20:38;100492.34;;;-2.30;50.62
74561;BME280;62979;55.720;37.606;2023-11-19T06:23:05;100491.47;;;-2.30;51.59
74561;BME280;62979;55.720;37.606;2023-11-19T06:25:34;100494.22;;;-2.26;51.54
74561;BME280;62979;55.720;37.606;2023-11-19T06:28:01;100497.75;;;-2.22;51.47
74561;BME280;62979;55.720;37.606;2023-11-19T06:30:28;100502.59;;;-2.30;51.03
74561;BME280;62979;55.720;37.606;2023-11-19T06:32:56;100471.13;;;-2.48;51.78
74561;BME280;62979;55.720;37.606;2023-11-19T06:35:23;100490.03;;;-2.45;52.57
74561;BME280;62979;55.720;37.606;2023-11-19T06:37:50;100490.00;;;-2.46;52.91
74561;BME280;62979;55.720;37.606;2023-11-19T06:40:18;100483.75;;;-2.53;54.03
74561;BME280;62979;55.720;37.606;2023-11-19T06:42:46;100483.19;;;-2.46;54.21
74561;BME280;62979;55.720;37.606;2023-11-19T06:45:13;100471.63;;;-2.57;54.27
74561;BME280;62979;55.720;37.606;2023-11-19T06:47:40;100481.38;;;-2.48;54.62
74561;BME280;62979;55.720;37.606;2023-11-19T06:50:08;100484.63;;;-2.52;54.91
74561;BME280;62979;55.720;37.606;2023-11-19T06:52:37;100483.75;;;-2.53;55.01
74561;BME280;62979;55.720;37.606;2023-11-19T06:55:05;100465.84;;;-2.51;55.06
74561;BME280;62979;55.720;37.606;2023-11-19T06:57:33;100460.63;;;-2.54;54.67
74561;BME280;62979;55.720;37.606;2023-11-19T07:00:02;100485.38;;;-2.34;55.00
74561;BME280;62979;55.720;37.606;2023-11-19T07:02:31;100482.34;;;-2.45;54.41
74561;BME280;62979;55.720;37.606;2023-11-19T07:04:58;100479.59;;;-2.49;54.47
74561;BME280;62979;55.720;37.606;2023-11-19T07:07:25;100491.97;;;-2.39;54.40
74561;BME280;62979;55.720;37.606;2023-11-19T07:09:53;100494.66;;;-2.36;54.82
74561;BME280;62979;55.720;37.606;2023-11-19T07:12:20;100489.47;;;-2.38;55.00
74561;BME280;62979;55.720;37.606;2023-11-19T07:14:47;100481.69;;;-2.41;54.34
74561;BME280;62979;55.720;37.606;2023-11-19T07:17:15;100481.41;;;-2.47;54.48
74561;BME280;62979;55.720;37.606;2023-11-19T07:19:43;100493.63;;;-2.41;54.75
74561;BME280;62979;55.720;37.606;2023-11-19T07:22:10;100480.28;;;-2.32;54.96
74561;BME280;62979;55.720;37.606;2023-11-19T07:24:39;100496.03;;;-2.23;54.70
74561;BME280;62979;55.720;37.606;2023-11-19T07:27:07;100490.84;;;-2.25;54.60
74561;BME280;62979;55.720;37.606;2023-11-19T07:29:35;100492.81;;;-2.18;54.29
74561;BME280;62979;55.720;37.606;2023-11-19T07:32:02;100482.47;;;-2.21;54.63
74561;BME280;62979;55.720;37.606;2023-11-19T07:34:31;100488.47;;;-2.20;54.32
74561;BME280;62979;55.720;37.606;2023-11-19T07:36:59;100485.09;;;-2.19;53.98
74561;BME280;62979;55.720;37.606;2023-11-19T07:39:28;100471.25;;;-2.24;52.98
74561;BME280;62979;55.720;37.606;2023-11-19T07:41:55;100464.47;;;-2.22;53.03
74561;BME280;62979;55.720;37.606;2023-11-19T07:44:22;100470.97;;;-2.09;53.03
74561;BME280;62979;55.720;37.606;2023-11-19T07:46:50;100479.81;;;-2.01;52.83
74561;BME280;62979;55.720;37.606;2023-11-19T07:49:17;100482.66;;;-1.94;53.31
74561;BME280;62979;55.720;37.606;2023-11-19T07:51:45;100485.03;;;-1.98;53.07
74561;BME280;62979;55.720;37.606;2023-11-19T07:54:12;100486.66;;;-2.00;52.98
74561;BME280;62979;55.720;37.606;2023-11-19T07:56:40;100488.19;;;-2.05;53.04
74561;BME280;62979;55.720;37.606;2023-11-19T07:59:07;100490.41;;;-2.14;53.68
74561;BME280;62979;55.720;37.606;2023-11-19T08:01:34;100486.34;;;-2.09;53.33
74561;BME280;62979;55.720;37.606;2023-11-19T08:04:02;100481.53;;;-2.00;53.08
74561;BME280;62979;55.720;37.606;2023-11-19T08:06:29;100468.72;;;-2.00;53.50
74561;BME280;62979;55.720;37.606;2023-11-19T08:08:59;100472.19;;;-2.00;53.42
74561;BME280;62979;55.720;37.606;2023-11-19T08:11:26;100466.91;;;-2.03;53.38
74561;BME280;62979;55.720;37.606;2023-11-19T08:13:53;100471.44;;;-1.97;53.44
74561;BME280;62979;55.720;37.606;2023-11-19T08:16:21;100472.38;;;-1.95;53.56
74561;BME280;62979;55.720;37.606;2023-11-19T08:18:48;100458.53;;;-1.99;53.16
74561;BME280;62979;55.720;37.606;2023-11-19T08:21:15;100462.91;;;-1.96;53.11
74561;BME280;62979;55.720;37.606;2023-11-19T08:23:42;100465.75;;;-2.11;52.52
74561;BME280;62979;55.720;37.606;2023-11-19T08:26:10;100465.28;;;-2.01;52.70
74561;BME280;62979;55.720;37.606;2023-11-19T08:28:38;100464.44;;;-2.01;52.14
74561;BME280;62979;55.720;37.606;2023-11-19T08:31:05;100424.75;;;-2.33;51.62
74561;BME280;62979;55.720;37.606;2023-11-19T08:33:32;100432.09;;;-2.20;52.12
74561;BME280;62979;55.720;37.606;2023-11-19T08:35:59;100455.50;;;-2.11;52.20
74561;BME280;62979;55.720;37.606;2023-11-19T08:38:26;100455.59;;;-2.30;52.13
74561;BME280;62979;55.720;37.606;2023-11-19T08:40:53;100459.75;;;-2.34;52.50
74561;BME280;62979;55.720;37.606;2023-11-19T08:43:26;100460.31;;;-2.41;53.08
74561;BME280;62979;55.720;37.606;2023-11-19T08:45:53;100452.00;;;-2.35;52.76
74561;BME280;62979;55.720;37.606;2023-11-19T08:48:20;100459.59;;;-2.37;53.11
74561;BME280;62979;55.720;37.606;2023-11-19T08:50:48;100456.53;;;-2.28;53.26
74561;BME280;62979;55.720;37.606;2023-11-19T08:53:15;100456.47;;;-2.30;52.78
74561;BME280;62979;55.720;37.606;2023-11-19T08:55:42;100447.34;;;-2.23;52.48
74561;BME280;62979;55.720;37.606;2023-11-19T08:58:09;100459.88;;;-2.08;52.12
74561;BME280;62979;55.720;37.606;2023-11-19T09:00:38;100450.56;;;-2.06;51.57
74561;BME280;62979;55.720;37.606;2023-11-19T09:03:05;100470.44;;;-2.01;52.15
74561;BME280;62979;55.720;37.606;2023-11-19T09:05:34;100468.56;;;-2.05;51.84
74561;BME280;62979;55.720;37.606;2023-11-19T09:08:01;100462.78;;;-2.22;51.44
74561;BME280;62979;55.720;37.606;2023-11-19T09:10:31;100454.75;;;-2.31;51.77
74561;BME280;62979;55.720;37.606;2023-11-19T09:12:58;100458.00;;;-2.35;52.09
74561;BME280;62979;55.720;37.606;2023-11-19T09:15:25;100447.09;;;-2.29;52.04
74561;BME280;62979;55.720;37.606;2023-11-19T09:17:54;100432.84;;;-2.23;50.74
74561;BME280;62979;55.720;37.606;2023-11-19T09:20:21;100439.50;;;-2.05;50.74
74561;BME280;62979;55.720;37.606;2023-11-19T09:22:48;100442.53;;;-1.93;50.64
74561;BME280;62979;55.720;37.606;2023-11-19T09:25:16;100436.00;;;-1.85;50.39
74561;BME280;62979;55.720;37.606;2023-11-19T09:27:43;100435.88;;;-1.88;50.03
74561;BME280;62979;55.720;37.606;2023-11-19T09:30:11;100419.28;;;-1.98;49.84
74561;BME280;62979;55.720;37.606;2023-11-19T09:32:39;100425.06;;;-2.03;49.96
74561;BME280;62979;55.720;37.606;2023-11-19T09:35:08;100416.56;;;-2.02;50.06
74561;BME280;62979;55.720;37.606;2023-11-19T09:37:38;100429.88;;;-1.88;49.90
74561;BME280;62979;55.720;37.606;2023-11-19T09:40:07;100413.56;;;-1.90;50.16
74561;BME280;62979;55.720;37.606;2023-11-19T09:42:40;100396.69;;;-2.08;50.24
74561;BME280;62979;55.720;37.606;2023-11-19T09:45:13;100401.28;;;-1.99;50.02
74561;BME280;62979;55.720;37.606;2023-11-19T09:47:43;100392.44;;;-2.07;50.16
74561;BME280;62979;55.720;37.606;2023-11-19T09:50:16;100403.91;;;-1.98;50.16
74561;BME280;62979;55.720;37.606;2023-11-19T09:52:44;100402.53;;;-1.88;49.62
74561;BME280;62979;55.720;37.606;2023-11-19T09:55:11;100400.13;;;-1.85;48.74
74561;BME280;62979;55.720;37.606;2023-11-19T09:57:39;100391.50;;;-1.87;48.91
74561;BME280;62979;55.720;37.606;2023-11-19T10:00:08;100387.16;;;-1.88;48.71
74561;BME280;62979;55.720;37.606;2023-11-19T10:02:38;100393.59;;;-1.99;48.73
74561;BME280;62979;55.720;37.606;2023-11-19T10:05:07;100373.91;;;-2.00;48.66
74561;BME280;62979;55.720;37.606;2023-11-19T10:07:37;100379.28;;;-1.94;49.11
74561;BME280;62979;55.720;37.606;2023-11-19T10:10:04;100370.75;;;-1.93;48.57
74561;BME280;62979;55.720;37.606;2023-11-19T10:12:33;100369.13;;;-1.91;49.18
74561;BME280;62979;55.720;37.606;2023-11-19T10:15:00;100372.84;;;-2.05;49.46
74561;BME280;62979;55.720;37.606;2023-11-19T10:17:28;100366.09;;;-2.03;49.43
74561;BME280;62979;55.720;37.606;2023-11-19T10:19:55;100374.81;;;-2.00;49.50
74561;BME280;62979;55.720;37.606;2023-11-19T10:22:23;100360.88;;;-2.06;49.25
74561;BME280;62979;55.720;37.606;2023-11-19T10:24:53;100332.81;;;-2.26;50.12
74561;BME280;62979;55.720;37.606;2023-11-19T10:27:23;100368.91;;;-1.97;49.50
74561;BME280;62979;55.720;37.606;2023-11-19T10:29:51;100362.16;;;-1.95;49.48
74561;BME280;62979;55.720;37.606;2023-11-19T10:32:18;100354.69;;;-1.89;49.34
74561;BME280;62979;55.720;37.606;2023-11-19T10:34:45;100352.00;;;-1.92;48.56
74561;BME280;62979;55.720;37.606;2023-11-19T10:37:27;100343.22;;;-1.99;49.81
74561;BME280;62979;55.720;37.606;2023-11-19T10:39:56;100367.50;;;-1.89;48.86
74561;BME280;62979;55.720;37.606;2023-11-19T10:42:23;100376.03;;;-1.88;48.42
74561;BME280;62979;55.720;37.606;2023-11-19T10:44:51;100369.00;;;-1.94;48.95
74561;BME280;62979;55.720;37.606;2023-11-19T10:47:19;100350.63;;;-2.06;48.34
74561;BME280;62979;55.720;37.606;2023-11-19T10:49:47;100370.53;;;-1.99;48.80
74561;BME280;62979;55.720;37.606;2023-11-19T10:52:18;100356.03;;;-1.99;48.14
74561;BME280;62979;55.720;37.606;2023-11-19T10:54:50;100370.81;;;-1.91;49.39
74561;BME280;62979;55.720;37.606;2023-11-19T10:57:21;100357.22;;;-2.13;49.21
74561;BME280;62979;55.720;37.606;2023-11-19T10:59:52;100356.09;;;-2.20;49.20
74561;BME280;62979;55.720;37.606;2023-11-19T11:02:28;100358.81;;;-2.17;48.97
74561;BME280;62979;55.720;37.606;2023-11-19T11:05:01;100365.16;;;-2.05;48.95
74561;BME280;62979;55.720;37.606;2023-11-19T11:07:31;100365.06;;;-2.08;48.39
74561;BME280;62979;55.720;37.606;2023-11-19T11:09:59;100352.44;;;-2.04;49.05
74561;BME280;62979;55.720;37.606;2023-11-19T11:15:18;100358.97;;;-1.88;47.97
74561;BME280;62979;55.720;37.606;2023-11-19T11:17:48;100356.47;;;-1.86;47.72
74561;BME280;62979;55.720;37.606;2023-11-19T11:20:17;100358.50;;;-1.78;47.66
74561;BME280;62979;55.720;37.606;2023-11-19T11:22:53;100351.84;;;-1.73;47.56
74561;BME280;62979;55.720;37.606;2023-11-19T11:25:39;100346.50;;;-1.79;47.08
74561;BME280;62979;55.720;37.606;2023-11-19T11:28:24;100355.88;;;-1.79;47.69
74561;BME280;62979;55.720;37.606;2023-11-19T11:31:15;100351.69;;;-1.77;47.33
74561;BME280;62979;55.720;37.606;2023-11-19T11:34:05;100353.25;;;-1.81;47.45
74561;BME280;62979;55.720;37.606;2023-11-19T11:36:53;100346.59;;;-1.76;46.77
74561;BME280;62979;55.720;37.606;2023-11-19T11:39:29;100330.50;;;-1.96;47.11
74561;BME280;62979;55.720;37.606;2023-11-19T11:45:02;100344.06;;;-1.98;46.69
74561;BME280;62979;55.720;37.606;2023-11-19T11:48:11;100342.44;;;-1.96;46.51
74561;BME280;62979;55.720;37.606;2023-11-19T11:50:49;100349.22;;;-1.98;46.61
74561;BME280;62979;55.720;37.606;2023-11-19T11:53:19;100341.69;;;-1.94;46.87
74561;BME280;62979;55.720;37.606;2023-11-19T11:55:58;100341.97;;;-1.86;46.80
74561;BME280;62979;55.720;37.606;2023-11-19T11:58:36;100322.13;;;-1.91;46.45
74561;BME280;62979;55.720;37.606;2023-11-19T12:01:07;100338.78;;;-1.79;46.55
74561;BME280;62979;55.720;37.606;2023-11-19T12:03:38;100334.59;;;-1.77;46.33
74561;BME280;62979;55.720;37.606;2023-11-19T12:06:06;100317.75;;;-1.94;46.93
74561;BME280;62979;55.720;37.606;2023-11-19T12:08:35;100329.16;;;-1.86;47.11
74561;BME280;62979;55.720;37.606;2023-11-19T12:11:02;100336.97;;;-1.83;47.25
74561;BME280;62979;55.720;37.606;2023-11-19T12:13:47;100325.34;;;-1.97;47.11
74561;BME280;62979;55.720;37.606;2023-11-19T12:16:23;100329.09;;;-2.11;47.52
74561;BME280;62979;55.720;37.606;2023-11-19T12:18:54;100336.31;;;-2.24;48.11
74561;BME280;62979;55.720;37.606;2023-11-19T12:21:29;100339.00;;;-2.21;47.83
74561;BME280;62979;55.720;37.606;2023-11-19T12:23:58;100323.72;;;-2.18;47.80
74561;BME280;62979;55.720;37.606;2023-11-19T12:26:37;100325.81;;;-2.07;47.91
74561;BME280;62979;55.720;37.606;2023-11-19T12:29:05;100327.66;;;-2.03;47.71
74561;BME280;62979;55.720;37.606;2023-11-19T12:31:33;100325.16;;;-2.26;47.85
74561;BME280;62979;55.720;37.606;2023-11-19T12:34:09;100320.81;;;-2.27;48.67
74561;BME280;62979;55.720;37.606;2023-11-19T12:36:40;100318.59;;;-2.18;47.81
74561;BME280;62979;55.720;37.606;2023-11-19T12:39:10;100315.09;;;-2.20;48.29
74561;BME280;62979;55.720;37.606;2023-11-19T12:41:53;100321.44;;;-2.10;47.45
74561;BME280;62979;55.720;37.606;2023-11-19T12:44:21;100319.03;;;-2.05;47.41
74561;BME280;62979;55.720;37.606;2023-11-19T12:47:02;100302.25;;;-2.21;47.32
74561;BME280;62979;55.720;37.606;2023-11-19T12:49:32;100315.59;;;-2.30;47.41
74561;BME280;62979;55.720;37.606;2023-11-19T12:51:59;100311.13;;;-2.35;47.69
74561;BME280;62979;55.720;37.606;2023-11-19T12:54:35;100299.06;;;-2.38;47.92
74561;BME280;62979;55.720;37.606;2023-11-19T12:57:03;100303.75;;;-2.50;47.94